Time;durP1;ratioP1;P1;durP2;ratioP2;P2;SDS_P1;SDS_P2;PMS_P1;PMS_P2;Temp;Humidity;BMP_temperature;BMP_pressure;BME280_temperature;BME280_humidity;BME280_pressure;Samples;Min_cycle;Max_cycle;Signal;HPM_P1;HPM_P2
2022/01/26 00:07:12;;;;;;;3.53;0.90;;;25.20;99.90;;;;;;5024925;28;20573;-75
2022/01/26 00:09:43;;;;;;;3.33;1.08;;;25.20;99.90;;;;;;5032977;28;20190;-76
2022/01/26 00:12:14;;;;;;;5.85;1.00;;;25.30;99.90;;;;;;5018557;28;20650;-76
2022/01/26 00:14:45;;;;;;;5.68;1.35;;;25.30;99.90;;;;;;5024000;28;20195;-76
2022/01/26 00:17:16;;;;;;;5.22;1.02;;;25.30;99.90;;;;;;5031321;28;20221;-76
2022/01/26 00:19:53;;;;;;;5.75;1.10;;;25.50;99.90;;;;;;5022440;28;20197;-76
2022/01/26 00:22:54;;;;;;;6.15;1.10;;;25.70;99.90;;;;;;5027335;28;20190;-75
2022/01/26 00:25:36;;;;;;;4.55;1.00;;;26.10;99.90;;;;;;5027482;28;20196;-75
2022/01/26 00:39:15;;;;;;;3.00;0.90;;;26.90;99.90;;;;;;5028988;28;20323;-78
2022/01/26 00:41:46;;;;;;;4.18;0.77;;;27.00;99.90;;;;;;5026136;28;20193;-76
2022/01/26 00:44:17;;;;;;;3.05;1.00;;;27.00;99.90;;;;;;5020995;28;20215;-74
2022/01/26 00:46:49;;;;;;;3.67;0.90;;;27.00;99.90;;;;;;5016768;28;20187;-73
2022/01/26 00:49:21;;;;;;;4.10;1.00;;;26.90;99.90;;;;;;5027122;28;20265;-72
2022/01/26 00:51:54;;;;;;;3.88;0.70;;;26.90;99.90;;;;;;5029493;28;20289;-74
2022/01/26 00:54:27;;;;;;;3.47;0.82;;;26.80;99.90;;;;;;5025809;28;20531;-74
2022/01/26 00:56:57;;;;;;;3.47;0.88;;;26.80;99.90;;;;;;5019361;28;20718;-73
2022/01/26 00:59:28;;;;;;;3.97;1.00;;;26.70;99.90;;;;;;5027549;28;20564;-72
2022/01/26 01:01:59;;;;;;;3.22;0.90;;;26.80;99.90;;;;;;5026616;28;20210;-72
2022/01/26 01:04:30;;;;;;;3.03;0.88;;;26.90;99.90;;;;;;5025441;28;20210;-72
2022/01/26 01:07:04;;;;;;;3.38;0.90;;;27.00;99.90;;;;;;5018519;28;20187;-74
2022/01/26 01:09:35;;;;;;;6.32;1.08;;;26.80;99.90;;;;;;5031664;28;20281;-73
2022/01/26 01:12:06;;;;;;;4.03;0.80;;;26.80;99.90;;;;;;5021500;28;20245;-74
2022/01/26 01:14:39;;;;;;;2.15;0.90;;;26.90;99.90;;;;;;5029192;28;20226;-72
2022/01/26 01:17:20;;;;;;;4.18;1.00;;;27.10;99.90;;;;;;5032988;28;20201;-72
2022/01/26 01:20:07;;;;;;;3.67;1.15;;;27.00;99.90;;;;;;5018687;28;20194;-72
2022/01/26 01:23:09;;;;;;;3.17;1.10;;;27.10;99.90;;;;;;5024764;28;20197;-72
2022/01/26 01:28:44;;;;;;;2.83;0.90;;;27.30;99.90;;;;;;5020813;28;20557;-74
2022/01/26 01:31:26;;;;;;;4.45;0.75;;;27.20;99.90;;;;;;5020247;28;20245;-72
2022/01/26 01:33:57;;;;;;;4.55;0.90;;;27.10;99.90;;;;;;5022838;28;20199;-72
2022/01/26 01:36:27;;;;;;;2.88;0.80;;;27.00;99.90;;;;;;5022023;28;20194;-72
2022/01/26 01:39:00;;;;;;;3.83;0.77;;;26.90;99.90;;;;;;5018383;28;20245;-71
2022/01/26 01:41:30;;;;;;;4.90;1.10;;;26.90;99.90;;;;;;5021392;28;20199;-72
2022/01/26 01:44:02;;;;;;;2.80;0.98;;;27.00;99.90;;;;;;5027749;28;20210;-72
2022/01/26 01:46:33;;;;;;;3.53;0.73;;;27.00;99.90;;;;;;5026387;28;20273;-72
2022/01/26 01:49:04;;;;;;;2.67;0.65;;;26.90;99.90;;;;;;5024269;28;20234;-72
2022/01/26 01:51:39;;;;;;;5.20;0.85;;;27.00;99.90;;;;;;5017182;28;20561;-72
2022/01/26 01:54:15;;;;;;;2.47;0.70;;;26.80;99.90;;;;;;5026415;28;20555;-71
2022/01/26 01:56:48;;;;;;;3.85;0.60;;;26.80;99.90;;;;;;5024643;28;20622;-72
2022/01/26 01:59:19;;;;;;;2.90;0.70;;;26.80;99.90;;;;;;5031596;28;20647;-72
2022/01/26 02:01:50;;;;;;;3.95;0.80;;;26.80;99.90;;;;;;5028509;28;20214;-73
2022/01/26 02:04:20;;;;;;;2.28;0.90;;;26.80;99.90;;;;;;5021953;28;20704;-72
2022/01/26 02:06:51;;;;;;;3.92;0.70;;;26.70;99.90;;;;;;5014902;28;20210;-72
2022/01/26 02:09:24;;;;;;;5.78;0.73;;;26.80;99.90;;;;;;5023053;28;20194;-73
2022/01/26 02:12:01;;;;;;;4.95;0.70;;;26.70;99.90;;;;;;5024335;28;20232;-72
2022/01/26 02:14:36;;;;;;;3.25;0.90;;;26.60;99.90;;;;;;5031962;28;20608;-71
2022/01/26 02:17:16;;;;;;;5.88;0.80;;;26.60;99.90;;;;;;5026431;28;20196;-72
2022/01/26 02:20:31;;;;;;;2.58;0.70;;;26.50;99.90;;;;;;5015574;28;20260;-71
2022/01/26 02:51:23;;;;;;;3.47;0.82;;;26.40;99.90;;;;;;5024660;28;20240;-72
2022/01/26 02:57:11;;;;;;;4.25;0.90;;;26.30;99.90;;;;;;5103940;27;20570;-71
2022/01/26 03:00:16;;;;;;;4.22;0.70;;;26.40;99.90;;;;;;5112814;27;20281;-71
2022/01/26 03:02:52;;;;;;;3.95;0.95;;;26.40;99.90;;;;;;5106959;28;20287;-70
2022/01/26 03:05:28;;;;;;;3.25;0.70;;;26.50;99.90;;;;;;5097497;28;20210;-70
2022/01/26 03:08:02;;;;;;;3.85;0.70;;;26.40;99.90;;;;;;5090097;28;20184;-71
2022/01/26 03:10:43;;;;;;;4.45;0.90;;;26.30;99.90;;;;;;5095944;28;20244;-72
2022/01/26 03:13:20;;;;;;;4.80;0.80;;;26.30;99.90;;;;;;5094611;28;20606;-74
2022/01/26 03:15:54;;;;;;;1.98;0.80;;;26.30;99.90;;;;;;5092101;28;20211;-73
2022/01/26 03:18:48;;;;;;;3.28;0.77;;;26.40;99.90;;;;;;5101100;28;20260;-73
2022/01/26 03:21:23;;;;;;;2.80;0.60;;;26.50;99.90;;;;;;5105988;28;20219;-73
2022/01/26 03:29:41;;;;;;;6.72;1.05;;;26.40;99.90;;;;;;5102218;28;20593;-72
2022/01/26 03:34:59;;;;;;;4.70;1.00;;;26.40;99.90;;;;;;5095674;28;20246;-72
2022/01/26 03:37:36;;;;;;;3.92;0.90;;;26.40;99.90;;;;;;5095267;28;20188;-74
2022/01/26 03:40:13;;;;;;;5.13;1.00;;;26.40;99.90;;;;;;5089809;28;20234;-72
2022/01/26 03:42:44;;;;;;;5.00;0.93;;;26.40;99.90;;;;;;5098964;28;20184;-73
2022/01/26 03:45:17;;;;;;;6.07;1.00;;;26.30;99.90;;;;;;5100371;28;20588;-74
2022/01/26 03:47:47;;;;;;;6.70;1.40;;;26.30;99.90;;;;;;5097402;28;20655;-72
2022/01/26 03:50:18;;;;;;;5.20;1.00;;;26.30;99.90;;;;;;5107827;28;20233;-74
2022/01/26 03:52:49;;;;;;;5.55;0.80;;;26.50;99.90;;;;;;5101219;28;20188;-73
2022/01/26 03:55:19;;;;;;;3.53;0.75;;;26.20;99.90;;;;;;5094880;28;20251;-72
2022/01/26 03:57:50;;;;;;;3.05;1.10;;;26.20;99.90;;;;;;5100666;28;20226;-73
2022/01/26 04:00:22;;;;;;;3.17;0.77;;;26.20;99.90;;;;;;5093786;28;20261;-74
2022/01/26 04:02:53;;;;;;;2.40;0.80;;;26.20;99.90;;;;;;5089206;28;20196;-75
2022/01/26 04:05:25;;;;;;;3.92;0.77;;;26.20;99.90;;;;;;5088876;28;20246;-80
2022/01/26 04:08:00;;;;;;;4.25;0.73;;;26.10;99.90;;;;;;5077665;28;20246;-75
2022/01/26 04:10:41;;;;;;;2.58;0.60;;;26.20;99.90;;;;;;5082347;28;20219;-75
2022/01/26 04:13:12;;;;;;;3.05;0.60;;;26.30;99.90;;;;;;5074669;28;20271;-75
2022/01/26 04:15:44;;;;;;;4.30;1.73;;;26.30;99.90;;;;;;5074542;28;20684;-75
2022/01/26 04:18:19;;;;;;;4.22;1.10;;;26.00;99.90;;;;;;5074436;28;20185;-74
2022/01/26 04:20:54;;;;;;;3.00;1.00;;;26.00;99.90;;;;;;5083622;28;20618;-76
2022/01/26 04:23:32;;;;;;;1.63;0.60;;;26.00;99.90;;;;;;5082964;28;20181;-73
2022/01/26 04:26:02;;;;;;;2.67;0.57;;;26.00;99.90;;;;;;5082951;28;20220;-73
2022/01/26 04:28:39;;;;;;;3.47;0.65;;;26.10;99.90;;;;;;5083702;28;20189;-74
2022/01/26 04:31:13;;;;;;;4.60;0.68;;;26.10;99.90;;;;;;5078303;28;20527;-72
2022/01/26 04:33:43;;;;;;;2.60;0.50;;;26.00;99.90;;;;;;5082328;28;20189;-72
2022/01/26 04:36:23;;;;;;;1.98;0.50;;;26.20;99.90;;;;;;5082323;28;20301;-73
2022/01/26 04:38:57;;;;;;;2.70;0.60;;;26.20;99.90;;;;;;5086012;28;20237;-73
2022/01/26 04:41:34;;;;;;;2.00;0.50;;;26.00;99.90;;;;;;5087739;28;20187;-72
2022/01/26 04:44:09;;;;;;;3.80;0.60;;;26.00;99.90;;;;;;5084880;28;20188;-74
2022/01/26 04:46:42;;;;;;;4.50;0.38;;;26.00;99.90;;;;;;5090515;28;20189;-73
2022/01/26 04:49:12;;;;;;;2.88;0.50;;;26.00;99.90;;;;;;5076356;28;20196;-73
2022/01/26 04:51:43;;;;;;;4.47;0.68;;;26.00;99.90;;;;;;5080505;28;20188;-72
2022/01/26 04:54:14;;;;;;;2.28;0.50;;;25.90;99.90;;;;;;5078559;28;20197;-73
2022/01/26 04:56:45;;;;;;;2.03;0.80;;;25.80;99.90;;;;;;5086287;28;20243;-72
2022/01/26 04:59:16;;;;;;;3.15;0.70;;;25.90;99.90;;;;;;5075269;28;20184;-73
2022/01/26 05:01:48;;;;;;;3.28;0.82;;;25.90;99.90;;;;;;5078053;28;20274;-73
2022/01/26 05:04:19;;;;;;;3.03;0.60;;;25.90;99.90;;;;;;5080787;28;20252;-74
2022/01/26 05:06:50;;;;;;;1.83;0.57;;;26.00;99.90;;;;;;5074565;28;20204;-73
2022/01/26 05:09:21;;;;;;;6.20;2.13;;;25.70;99.90;;;;;;5082108;28;20574;-76
2022/01/26 05:11:54;;;;;;;5.38;0.82;;;25.60;99.90;;;;;;5087977;28;20199;-74
2022/01/26 05:14:25;;;;;;;4.15;0.63;;;25.60;99.90;;;;;;5079675;28;20204;-73
2022/01/26 05:16:57;;;;;;;2.72;0.60;;;25.50;99.90;;;;;;5088429;28;20212;-73
2022/01/26 05:19:28;;;;;;;2.78;0.60;;;25.50;99.90;;;;;;5077414;28;20576;-74
2022/01/26 05:21:59;;;;;;;3.90;0.70;;;25.50;99.90;;;;;;5079635;28;20192;-73
2022/01/26 05:24:29;;;;;;;2.90;0.50;;;25.50;99.90;;;;;;5081426;28;20198;-74
2022/01/26 05:27:01;;;;;;;7.60;0.95;;;25.40;99.90;;;;;;5082269;28;20651;-73
2022/01/26 05:29:31;;;;;;;4.50;0.73;;;25.40;99.90;;;;;;5083894;28;20203;-72
2022/01/26 05:32:04;;;;;;;2.72;0.60;;;25.50;99.90;;;;;;5079728;28;20185;-73
2022/01/26 05:34:35;;;;;;;4.45;0.63;;;25.40;99.90;;;;;;5072841;28;20204;-73
2022/01/26 05:37:05;;;;;;;3.78;0.55;;;25.50;99.90;;;;;;5072021;28;20679;-73
2022/01/26 05:39:38;;;;;;;2.95;0.70;;;25.50;99.90;;;;;;5074435;28;20200;-73
2022/01/26 05:42:09;;;;;;;6.18;0.80;;;25.50;99.90;;;;;;5082187;28;20188;-73
2022/01/26 05:44:40;;;;;;;4.43;1.00;;;25.60;99.90;;;;;;5080924;28;20185;-73
2022/01/26 05:47:16;;;;;;;2.60;0.60;;;25.80;99.90;;;;;;5081001;28;20192;-73
2022/01/26 05:49:47;;;;;;;2.28;0.60;;;25.60;99.90;;;;;;5079221;28;20245;-74
2022/01/26 05:52:18;;;;;;;3.28;0.63;;;25.50;99.90;;;;;;5091116;28;20188;-73
2022/01/26 05:54:49;;;;;;;2.22;0.50;;;25.40;99.90;;;;;;5079135;28;20220;-74
2022/01/26 05:57:20;;;;;;;2.42;0.80;;;25.30;99.90;;;;;;5075303;28;20232;-73
2022/01/26 05:59:53;;;;;;;5.75;0.68;;;25.30;99.90;;;;;;5084542;28;20188;-73
2022/01/26 06:02:25;;;;;;;4.55;0.82;;;25.30;99.90;;;;;;5077559;28;20181;-74
2022/01/26 06:04:56;;;;;;;2.85;0.60;;;25.30;99.90;;;;;;5081113;28;20184;-73
2022/01/26 06:07:27;;;;;;;5.43;0.80;;;25.30;99.90;;;;;;5073325;28;20188;-73
2022/01/26 06:09:57;;;;;;;3.90;0.82;;;25.20;99.90;;;;;;5076706;28;20189;-73
2022/01/26 06:12:29;;;;;;;2.22;0.50;;;25.20;99.90;;;;;;5090693;28;20184;-73
2022/01/26 06:15:00;;;;;;;2.35;0.70;;;25.20;99.90;;;;;;5084591;28;20207;-74
2022/01/26 06:17:33;;;;;;;3.15;0.60;;;25.30;99.90;;;;;;5077414;28;20223;-72
2022/01/26 06:20:03;;;;;;;4.30;0.80;;;25.30;99.90;;;;;;5080358;28;20196;-73
2022/01/26 06:22:34;;;;;;;2.92;0.60;;;25.20;99.90;;;;;;5079782;28;20188;-73
2022/01/26 06:25:06;;;;;;;5.38;0.68;;;25.10;99.90;;;;;;5081106;28;20189;-73
2022/01/26 06:27:38;;;;;;;2.58;0.60;;;25.00;99.90;;;;;;5080225;28;20253;-73
2022/01/26 06:30:11;;;;;;;3.58;0.70;;;25.00;99.90;;;;;;5084592;28;20589;-73
2022/01/26 06:32:44;;;;;;;3.63;0.70;;;25.00;99.90;;;;;;5076247;28;20181;-73
2022/01/26 06:35:15;;;;;;;2.40;0.60;;;25.00;99.90;;;;;;5088473;28;20180;-74
2022/01/26 06:37:47;;;;;;;2.13;0.60;;;24.90;99.90;;;;;;5085594;28;20209;-75
2022/01/26 06:40:19;;;;;;;3.83;0.60;;;25.00;99.90;;;;;;5084569;28;20200;-73
2022/01/26 06:42:55;;;;;;;2.42;0.60;;;25.00;99.90;;;;;;5079794;28;20723;-73
2022/01/26 06:45:29;;;;;;;3.97;0.70;;;25.00;99.90;;;;;;5079047;28;20184;-72
2022/01/26 06:50:46;;;;;;;1.92;0.45;;;25.00;99.90;;;;;;5075591;28;21566;-72
2022/01/26 06:53:19;;;;;;;5.65;0.70;;;25.00;99.90;;;;;;5077988;28;20211;-72
2022/01/26 06:55:53;;;;;;;4.32;1.00;;;24.90;99.90;;;;;;5079616;28;20231;-73
2022/01/26 06:58:23;;;;;;;4.47;1.10;;;24.90;99.90;;;;;;5088098;28;20265;-72
2022/01/26 07:00:54;;;;;;;3.60;0.70;;;25.00;99.90;;;;;;5077619;28;20215;-72
2022/01/26 07:03:26;;;;;;;3.30;0.50;;;25.00;99.90;;;;;;5080162;28;20242;-73
2022/01/26 07:05:57;;;;;;;3.58;0.70;;;25.00;99.90;;;;;;5073931;28;20192;-74
2022/01/26 07:08:28;;;;;;;3.83;0.70;;;25.10;99.90;;;;;;5072984;28;20632;-73
2022/01/26 07:10:59;;;;;;;2.63;0.75;;;25.00;99.90;;;;;;5082082;28;20185;-73
2022/01/26 07:13:30;;;;;;;3.55;0.85;;;24.80;99.90;;;;;;5078111;28;20320;-73
2022/01/26 07:21:35;;;;;;;3.70;0.90;;;24.80;99.90;;;;;;5071394;28;20192;-73
2022/01/26 07:24:06;;;;;;;2.25;0.68;;;24.60;99.90;;;;;;5080286;28;20189;-72
2022/01/26 07:26:37;;;;;;;3.63;0.68;;;24.70;99.90;;;;;;5084187;28;20188;-74
2022/01/26 07:29:11;;;;;;;4.00;0.80;;;24.60;99.90;;;;;;5083517;28;20262;-73
2022/01/26 07:31:46;;;;;;;3.28;0.95;;;24.60;99.90;;;;;;5078442;28;20185;-73
2022/01/26 07:34:20;;;;;;;5.03;0.73;;;24.60;99.90;;;;;;5080783;28;20181;-72
2022/01/26 07:36:53;;;;;;;2.67;0.60;;;24.60;99.90;;;;;;5073778;28;20209;-72
2022/01/26 07:39:41;;;;;;;4.13;0.70;;;24.50;99.90;;;;;;5080710;28;20664;-73
2022/01/26 07:42:12;;;;;;;5.20;0.80;;;24.50;99.90;;;;;;5075840;28;20188;-73
2022/01/26 07:44:43;;;;;;;4.18;0.77;;;24.40;99.90;;;;;;5082343;28;20197;-73
2022/01/26 07:47:14;;;;;;;4.15;0.80;;;24.50;99.90;;;;;;5076989;28;20555;-74
2022/01/26 07:49:46;;;;;;;2.65;0.90;;;24.50;99.90;;;;;;5079815;28;20651;-73
2022/01/26 07:52:17;;;;;;;3.08;0.70;;;24.40;99.90;;;;;;5081681;28;20204;-73
2022/01/26 07:54:51;;;;;;;3.22;0.70;;;24.50;99.90;;;;;;5085290;28;20186;-74
2022/01/26 07:57:22;;;;;;;3.50;0.60;;;24.40;99.90;;;;;;5079014;28;20208;-73
2022/01/26 07:59:53;;;;;;;5.43;0.70;;;24.30;99.90;;;;;;5076561;28;20193;-72
2022/01/26 08:02:23;;;;;;;5.60;0.90;;;24.30;99.90;;;;;;5078423;28;20197;-73
2022/01/26 08:04:57;;;;;;;4.75;0.82;;;24.30;99.90;;;;;;5082889;28;20193;-73
2022/01/26 08:07:28;;;;;;;4.15;1.25;;;24.20;99.90;;;;;;5080125;28;20584;-74
2022/01/26 08:09:58;;;;;;;3.85;1.05;;;24.20;99.90;;;;;;5081478;28;20276;-73
2022/01/26 08:12:29;;;;;;;4.25;0.85;;;24.10;99.90;;;;;;5086389;28;20271;-73
2022/01/26 08:15:00;;;;;;;2.53;0.75;;;24.10;99.90;;;;;;5077151;28;20189;-73
2022/01/26 08:17:31;;;;;;;2.78;0.80;;;24.00;99.90;;;;;;5080658;28;20310;-73
2022/01/26 08:20:05;;;;;;;4.03;0.90;;;24.00;99.90;;;;;;5077344;28;20596;-73
2022/01/26 08:22:35;;;;;;;5.18;0.90;;;24.00;99.90;;;;;;5088649;28;20191;-73
2022/01/26 08:25:06;;;;;;;2.20;0.70;;;23.90;99.90;;;;;;5080367;28;20184;-73
2022/01/26 08:27:44;;;;;;;2.55;0.73;;;23.90;99.90;;;;;;5076964;28;20196;-73
2022/01/26 08:30:18;;;;;;;3.72;0.77;;;23.80;99.90;;;;;;5092845;28;20188;-73
2022/01/26 08:32:49;;;;;;;3.67;1.20;;;23.80;99.90;;;;;;5078485;28;20274;-73
2022/01/26 08:35:21;;;;;;;3.10;0.70;;;23.70;99.90;;;;;;5085945;28;20182;-73
2022/01/26 08:37:52;;;;;;;2.88;0.82;;;23.70;99.90;;;;;;5080550;28;20208;-73
2022/01/26 08:40:24;;;;;;;3.53;0.90;;;23.60;99.90;;;;;;5079575;28;20225;-72
2022/01/26 08:42:55;;;;;;;5.20;0.80;;;23.60;99.90;;;;;;5087035;28;20554;-73
2022/01/26 08:45:26;;;;;;;3.92;1.00;;;23.60;99.90;;;;;;5075596;28;20648;-73
2022/01/26 08:47:56;;;;;;;2.40;0.90;;;23.60;99.90;;;;;;5083331;28;20271;-72
2022/01/26 08:50:29;;;;;;;3.00;0.80;;;23.50;99.90;;;;;;5086963;28;20184;-73
2022/01/26 08:53:00;;;;;;;3.33;0.70;;;23.40;99.90;;;;;;5074986;28;20193;-74
2022/01/26 08:55:31;;;;;;;5.13;0.77;;;23.40;99.90;;;;;;5077547;28;20597;-72
2022/01/26 08:58:02;;;;;;;2.13;0.80;;;23.30;99.90;;;;;;5089396;28;20291;-73
2022/01/26 09:00:33;;;;;;;3.53;0.80;;;23.30;99.90;;;;;;5080344;28;20223;-73
2022/01/26 09:03:03;;;;;;;5.35;0.82;;;23.20;99.90;;;;;;5074991;28;20189;-73
2022/01/26 09:05:36;;;;;;;5.32;1.00;;;23.20;99.90;;;;;;5086856;28;20639;-73
2022/01/26 09:08:07;;;;;;;3.08;0.90;;;23.20;99.90;;;;;;5079268;28;20251;-73
2022/01/26 09:10:39;;;;;;;3.05;1.05;;;23.10;99.90;;;;;;5079343;28;20185;-73
2022/01/26 09:13:10;;;;;;;4.68;0.80;;;23.10;99.90;;;;;;5077917;28;20212;-72
2022/01/26 09:15:41;;;;;;;3.60;0.80;;;23.10;99.90;;;;;;5080532;28;20251;-73
2022/01/26 09:18:17;;;;;;;3.88;0.68;;;23.00;99.90;;;;;;5083020;28;20209;-72
2022/01/26 09:20:50;;;;;;;4.13;0.80;;;23.00;99.90;;;;;;5078143;28;20204;-73
2022/01/26 09:23:20;;;;;;;4.88;0.90;;;23.00;99.90;;;;;;5084147;28;20192;-73
2022/01/26 09:25:51;;;;;;;2.95;0.75;;;22.90;99.90;;;;;;5077506;28;20197;-73
2022/01/26 09:28:22;;;;;;;4.20;1.00;;;22.90;99.90;;;;;;5081195;28;20182;-73
2022/01/26 09:30:53;;;;;;;4.47;0.88;;;22.90;99.90;;;;;;5085936;28;20204;-77
2022/01/26 09:33:24;;;;;;;3.78;1.00;;;22.90;99.90;;;;;;5075484;28;20185;-75
2022/01/26 09:35:56;;;;;;;3.03;0.93;;;22.90;99.90;;;;;;5085696;28;20241;-77
2022/01/26 09:38:27;;;;;;;3.22;0.90;;;22.90;99.90;;;;;;5085833;28;20212;-76
2022/01/26 09:40:57;;;;;;;3.33;0.80;;;22.80;99.90;;;;;;5084043;28;20644;-76
2022/01/26 09:43:28;;;;;;;3.30;0.80;;;22.80;99.90;;;;;;5076084;28;20674;-76
2022/01/26 09:45:59;;;;;;;3.97;0.90;;;22.80;99.90;;;;;;5085613;28;20267;-76
2022/01/26 09:48:34;;;;;;;5.00;0.80;;;22.80;99.90;;;;;;5078097;28;20188;-76
2022/01/26 09:51:06;;;;;;;4.75;0.88;;;22.70;99.90;;;;;;5078952;28;20692;-76
2022/01/26 09:53:37;;;;;;;3.80;0.85;;;22.70;99.90;;;;;;5073217;28;20196;-75
2022/01/26 09:56:08;;;;;;;3.67;0.80;;;22.70;99.90;;;;;;5072160;28;20590;-76
2022/01/26 09:58:39;;;;;;;5.53;0.90;;;22.70;99.90;;;;;;5072276;28;20213;-76
2022/01/26 10:01:09;;;;;;;5.18;0.90;;;22.60;99.90;;;;;;5077619;28;20235;-76
2022/01/26 10:03:46;;;;;;;5.47;1.00;;;22.60;99.90;;;;;;5080874;28;20188;-77
2022/01/26 10:06:27;;;;;;;3.67;0.80;;;22.60;99.90;;;;;;5078468;28;20188;-77
2022/01/26 10:09:14;;;;;;;4.18;0.82;;;22.60;99.90;;;;;;5076974;28;20192;-77
2022/01/26 10:17:31;;;;;;;5.90;0.90;;;22.60;99.90;;;;;;5077117;28;20725;-76
2022/01/26 10:20:04;;;;;;;6.70;1.00;;;22.50;99.90;;;;;;5084603;28;20185;-77
2022/01/26 10:22:38;;;;;;;5.70;1.00;;;22.50;99.90;;;;;;5076787;28;20200;-76
2022/01/26 10:25:12;;;;;;;4.00;1.13;;;22.50;99.90;;;;;;5080859;28;20282;-76
2022/01/26 10:27:44;;;;;;;3.88;0.90;;;22.50;99.90;;;;;;5075589;28;20246;-77
2022/01/26 10:30:18;;;;;;;5.90;1.20;;;22.50;99.90;;;;;;5073517;28;20659;-76
2022/01/26 10:32:49;;;;;;;4.57;1.20;;;22.50;99.90;;;;;;5084151;28;20189;-76
2022/01/26 10:35:20;;;;;;;6.10;1.10;;;22.40;99.90;;;;;;5084344;28;20191;-76
2022/01/26 10:37:58;;;;;;;5.57;1.05;;;22.40;99.90;;;;;;5078306;28;20213;-77
2022/01/26 10:40:30;;;;;;;4.95;1.05;;;22.40;99.90;;;;;;5077500;28;20196;-76
2022/01/26 10:43:05;;;;;;;3.88;1.02;;;22.40;99.90;;;;;;5074478;28;20193;-76
2022/01/26 10:48:30;;;;;;;3.05;1.08;;;22.40;99.90;;;;;;5077343;28;20200;-76
2022/01/26 10:54:17;;;;;;;3.90;1.00;;;22.40;99.90;;;;;;5078398;28;20184;-76
2022/01/26 10:56:48;;;;;;;3.08;0.90;;;22.40;99.90;;;;;;5075270;28;20258;-76
2022/01/26 10:59:18;;;;;;;4.28;1.00;;;22.40;99.90;;;;;;5080554;28;20196;-75
2022/01/26 11:01:49;;;;;;;3.20;1.00;;;22.40;99.90;;;;;;5075601;28;20208;-76
2022/01/26 11:04:20;;;;;;;5.68;1.30;;;22.40;99.90;;;;;;5082625;28;20188;-76
2022/01/26 11:06:55;;;;;;;8.90;2.60;;;22.50;99.90;;;;;;5085232;28;20194;-76
2022/01/26 11:09:32;;;;;;;8.85;3.30;;;22.50;99.90;;;;;;5083235;28;20191;-76
2022/01/26 11:12:07;;;;;;;4.57;3.00;;;22.50;99.90;;;;;;5082794;28;20231;-77
2022/01/26 11:14:45;;;;;;;9.48;5.15;;;22.50;99.90;;;;;;5074156;28;20188;-76
2022/01/26 11:17:28;;;;;;;12.95;7.68;;;22.50;99.90;;;;;;5074550;28;20195;-76
2022/01/26 11:20:00;;;;;;;13.02;6.35;;;22.50;99.90;;;;;;5085480;28;20181;-76
2022/01/26 11:22:32;;;;;;;6.97;2.90;;;22.50;99.90;;;;;;5093215;28;20215;-76
2022/01/26 11:25:14;;;;;;;4.78;1.30;;;22.50;99.90;;;;;;5080960;28;20188;-77
2022/01/26 11:27:45;;;;;;;3.63;1.20;;;22.50;99.90;;;;;;5089608;28;20202;-76
2022/01/26 11:30:21;;;;;;;4.55;0.93;;;22.50;99.90;;;;;;5079379;28;20193;-77
2022/01/26 11:32:58;;;;;;;2.28;1.00;;;22.50;99.90;;;;;;5080972;28;20193;-76
2022/01/26 11:35:31;;;;;;;7.00;1.20;;;22.50;99.90;;;;;;5076262;28;20185;-76
2022/01/26 11:38:14;;;;;;;6.07;1.00;;;22.50;99.90;;;;;;5082195;28;20212;-77
2022/01/26 11:46:33;;;;;;;3.72;0.90;;;22.40;99.90;;;;;;5087439;28;20582;-77
2022/01/26 11:49:07;;;;;;;6.15;0.80;;;22.40;99.90;;;;;;5090463;28;20192;-77
2022/01/26 11:51:46;;;;;;;2.22;0.90;;;22.40;99.90;;;;;;5083271;28;20632;-76
2022/01/26 11:54:18;;;;;;;4.28;0.80;;;22.30;99.90;;;;;;5075948;28;20591;-76
2022/01/26 11:57:10;;;;;;;5.40;0.80;;;22.30;99.90;;;;;;5085758;28;20711;-77
2022/01/26 11:59:47;;;;;;;3.42;0.88;;;22.30;99.90;;;;;;5080256;28;20212;-76
2022/01/26 12:02:29;;;;;;;2.50;0.77;;;22.30;99.90;;;;;;5082180;28;20185;-76
2022/01/26 12:05:05;;;;;;;2.55;0.77;;;22.30;99.90;;;;;;5078292;28;20188;-76
2022/01/26 12:07:36;;;;;;;5.25;1.00;;;22.20;99.90;;;;;;5084469;28;20228;-76
2022/01/26 12:10:07;;;;;;;6.18;0.88;;;22.20;99.90;;;;;;5077426;28;20646;-76
2022/01/26 12:12:41;;;;;;;4.88;0.77;;;22.20;99.90;;;;;;5087506;28;20643;-76
2022/01/26 12:15:16;;;;;;;2.92;0.60;;;22.10;99.90;;;;;;5080189;28;20195;-76
2022/01/26 12:18:02;;;;;;;3.47;0.82;;;22.20;99.90;;;;;;5078049;28;20580;-76
2022/01/26 12:32:16;;;;;;;5.68;0.70;;;22.10;99.90;;;;;;5075238;28;20267;-76
2022/01/26 12:34:59;;;;;;;3.13;0.63;;;22.10;99.90;;;;;;5082687;28;20318;-76
2022/01/26 12:37:40;;;;;;;5.47;1.02;;;22.10;99.90;;;;;;5081710;28;20191;-77
2022/01/26 12:43:05;;;;;;;4.72;0.65;;;22.00;99.90;;;;;;5070689;28;20196;-76
2022/01/26 12:45:38;;;;;;;1.98;0.60;;;22.00;99.90;;;;;;5085001;28;20188;-76
2022/01/26 12:48:11;;;;;;;2.92;0.80;;;22.00;99.90;;;;;;5078976;28;20192;-76
2022/01/26 12:50:43;;;;;;;4.25;0.80;;;22.00;99.90;;;;;;5089760;28;20670;-76
2022/01/26 12:53:13;;;;;;;2.40;0.60;;;22.00;99.90;;;;;;5079459;28;20235;-76
2022/01/26 12:55:44;;;;;;;2.47;0.85;;;22.00;99.90;;;;;;5082809;28;20764;-77
2022/01/26 12:58:25;;;;;;;5.28;1.00;;;22.00;99.90;;;;;;5081702;28;20208;-77
2022/01/26 13:01:03;;;;;;;1.50;0.50;;;22.10;99.90;;;;;;5075339;28;20247;-76
2022/01/26 13:03:35;;;;;;;1.92;0.70;;;22.10;99.90;;;;;;5082116;28;20191;-77
2022/01/26 13:06:13;;;;;;;2.88;0.80;;;22.10;99.90;;;;;;5076803;28;20201;-76
2022/01/26 13:08:50;;;;;;;1.50;0.57;;;22.10;99.90;;;;;;5081634;28;20191;-77
2022/01/26 13:11:32;;;;;;;4.32;0.88;;;22.00;99.90;;;;;;5073923;28;20267;-77
2022/01/26 13:14:15;;;;;;;3.63;0.90;;;22.00;99.90;;;;;;5082933;28;20639;-76
2022/01/26 13:17:06;;;;;;;3.95;0.82;;;22.00;99.90;;;;;;5082004;28;20197;-76
2022/01/26 13:19:54;;;;;;;4.32;0.80;;;22.00;99.90;;;;;;5075755;28;20296;-76
2022/01/26 13:22:53;;;;;;;3.30;0.70;;;22.00;99.90;;;;;;5074347;28;20212;-77
2022/01/26 13:25:40;;;;;;;4.80;0.90;;;22.00;99.90;;;;;;5083130;28;20254;-76
2022/01/26 13:28:25;;;;;;;3.78;0.85;;;22.00;99.90;;;;;;5074499;28;20204;-77
2022/01/26 13:31:28;;;;;;;3.88;0.70;;;22.00;99.90;;;;;;5082384;28;20214;-76
2022/01/26 13:34:31;;;;;;;4.47;0.70;;;22.00;99.90;;;;;;5078837;28;20220;-76
2022/01/26 13:37:15;;;;;;;3.03;0.60;;;22.00;99.90;;;;;;5073783;28;20656;-76
2022/01/26 13:39:52;;;;;;;2.88;1.00;;;22.00;99.90;;;;;;5078627;28;20213;-77
2022/01/26 13:50:56;;;;;;;4.70;0.75;;;22.10;99.90;;;;;;5075348;28;20231;-76
2022/01/26 13:53:36;;;;;;;3.67;0.82;;;22.10;99.90;;;;;;5080160;28;20242;-77
2022/01/26 13:56:14;;;;;;;3.75;0.70;;;22.10;99.90;;;;;;5073276;28;20239;-76
2022/01/26 13:58:57;;;;;;;3.25;0.63;;;22.10;99.90;;;;;;5087205;28;20220;-77
2022/01/26 14:01:28;;;;;;;3.72;0.90;;;22.20;99.90;;;;;;5087393;28;20216;-77
2022/01/26 14:04:03;;;;;;;4.60;0.73;;;22.20;99.90;;;;;;5087638;28;20670;-77
2022/01/26 14:06:36;;;;;;;3.42;0.65;;;22.20;99.90;;;;;;5087959;28;20189;-77
2022/01/26 14:09:07;;;;;;;3.53;0.75;;;22.20;99.90;;;;;;5074517;28;20281;-77
2022/01/26 14:11:38;;;;;;;0.88;0.50;;;22.10;99.90;;;;;;5072761;28;20189;-77
2022/01/26 14:14:10;;;;;;;4.28;0.77;;;22.10;99.90;;;;;;5073939;28;20231;-77
2022/01/26 14:16:45;;;;;;;3.92;0.90;;;22.10;99.90;;;;;;5080519;28;20267;-77
2022/01/26 14:19:27;;;;;;;2.08;0.60;;;22.10;99.90;;;;;;5074876;28;20212;-77
2022/01/26 14:22:31;;;;;;;5.00;0.85;;;22.10;99.90;;;;;;5073452;28;20191;-76
2022/01/26 14:25:17;;;;;;;3.30;0.70;;;22.10;99.90;;;;;;5072363;28;20538;-76
2022/01/26 14:27:51;;;;;;;2.47;0.60;;;22.10;99.90;;;;;;5073673;28;20189;-77
2022/01/26 14:30:35;;;;;;;2.28;0.70;;;22.10;99.90;;;;;;5081766;28;20199;-77
2022/01/26 14:33:35;;;;;;;2.03;0.60;;;22.10;99.90;;;;;;5081113;28;20200;-77
2022/01/26 14:36:25;;;;;;;4.95;0.93;;;22.00;99.90;;;;;;5077083;28;20207;-76
2022/01/26 14:55:58;;;;;;;3.55;1.00;;;21.70;99.90;;;;;;5072544;28;20715;-76
2022/01/26 15:35:09;;;;;;;3.35;0.70;;;20.80;99.90;;;;;;5081173;28;20562;-75
2022/01/26 15:40:33;;;;;;;3.42;0.80;;;20.80;99.90;;;;;;5081950;28;20678;-75
2022/01/26 15:49:10;;;;;;;4.10;1.02;;;20.90;99.90;;;;;;5020761;28;20692;-75
2022/01/26 15:52:10;;;;;;;3.83;0.70;;;20.80;99.90;;;;;;5072091;28;20735;-76
2022/01/26 16:06:04;;;;;;;4.15;1.10;;;20.80;99.90;;;;;;5082942;28;20609;-76
2022/01/26 16:12:40;;;;;;;2.67;0.85;;;20.80;99.90;;;;;;5082539;28;20210;-75
2022/01/26 16:20:19;;;;;;;3.20;1.00;;;20.70;99.90;;;;;;5075143;28;20249;-74
2022/01/26 17:02:54;;;;;;;3.92;1.05;;;20.90;99.90;;;;;;5078156;28;20200;-74
2022/01/26 17:11:30;;;;;;;4.82;1.40;;;20.90;99.90;;;;;;5092537;28;20215;-75
2022/01/26 17:25:58;;;;;;;4.57;0.98;;;20.90;99.90;;;;;;5086529;28;20284;-75
2022/01/26 18:13:02;;;;;;;3.65;1.40;;;21.10;99.90;;;;;;5053798;28;20236;-75
2022/01/26 18:13:34;;;;;;;5.32;1.20;;;21.10;99.90;;;;;;5073165;28;20315;-76
2022/01/26 18:16:10;;;;;;;3.28;1.60;;;21.10;99.90;;;;;;5073679;28;20290;-75
2022/01/26 18:32:44;;;;;;;4.40;1.50;;;21.10;99.90;;;;;;5078810;28;20223;-75